createdAt,value
2023-04-02T00:01:36.880Z,86.79
2023-04-02T00:04:14.806Z,87.14
2023-04-02T00:06:46.209Z,86.94
2023-04-02T00:09:25.859Z,86.94
2023-04-02T00:11:54.769Z,86.84
2023-04-02T00:14:26.542Z,86.76
2023-04-02T00:16:57.189Z,86.85
2023-04-02T00:19:31.994Z,86.66
2023-04-02T00:22:00.721Z,86.64
2023-04-02T00:24:27.630Z,86.50
2023-04-02T00:26:55.349Z,86.93
2023-04-02T00:29:22.352Z,86.50
2023-04-02T00:31:51.266Z,86.58
2023-04-02T00:34:21.889Z,86.27
2023-04-02T00:36:51.402Z,86.09
2023-04-02T00:39:22.184Z,85.92
2023-04-02T00:41:49.720Z,86.04
2023-04-02T00:44:23.961Z,86.10
2023-04-02T00:46:52.503Z,85.92
2023-04-02T00:49:23.680Z,86.14
2023-04-02T00:51:56.620Z,86.14
2023-04-02T00:54:30.290Z,85.98
2023-04-02T00:56:59.055Z,85.78
2023-04-02T00:59:28.504Z,86.02
2023-04-02T01:02:04.162Z,86.00
2023-04-02T01:04:34.538Z,86.17
2023-04-02T01:07:07.165Z,85.82
2023-04-02T01:09:52.977Z,85.25
2023-04-02T01:12:41.438Z,85.59
2023-04-02T01:15:13.351Z,85.75
2023-04-02T01:17:48.951Z,85.83
2023-04-02T01:20:37.916Z,85.63
2023-04-02T01:23:11.459Z,85.48
2023-04-02T01:25:43.844Z,85.55
2023-04-02T01:28:19.706Z,85.50
2023-04-02T01:30:52.518Z,85.71
2023-04-02T01:33:23.716Z,85.26
2023-04-02T01:36:05.871Z,85.42
2023-04-02T01:38:39.728Z,85.26
2023-04-02T01:41:13.933Z,85.63
2023-04-02T01:43:47.881Z,85.48
2023-04-02T01:46:30.022Z,85.08
2023-04-02T01:49:00.153Z,85.50
2023-04-02T01:51:30.534Z,85.43
2023-04-02T01:54:00.045Z,85.00
2023-04-02T01:56:30.512Z,85.06
2023-04-02T01:58:58.439Z,85.01
2023-04-02T02:01:33.326Z,84.99
2023-04-02T02:04:06.874Z,85.04
2023-04-02T02:06:33.950Z,84.64
2023-04-02T02:09:04.586Z,85.13
2023-04-02T02:11:33.460Z,84.88
2023-04-02T02:14:02.444Z,84.94
2023-04-02T02:16:33.448Z,84.65
2023-04-02T02:19:03.034Z,84.57
2023-04-02T02:21:39.615Z,84.82
2023-04-02T02:24:14.753Z,84.92
2023-04-02T02:26:42.997Z,84.85
2023-04-02T02:29:15.449Z,84.74
2023-04-02T02:31:46.040Z,84.54
2023-04-02T02:34:18.728Z,84.92
2023-04-02T02:36:52.891Z,84.35
2023-04-02T02:39:27.350Z,84.61
2023-04-02T02:41:59.911Z,84.48
2023-04-02T02:44:28.925Z,84.34
2023-04-02T02:47:01.845Z,84.95
2023-04-02T02:49:31.895Z,84.47
2023-04-02T02:52:04.393Z,84.43
2023-04-02T02:54:34.909Z,84.55
2023-04-02T02:57:07.779Z,85.02
2023-04-02T02:59:37.416Z,84.66
2023-04-02T03:02:10.780Z,84.65
2023-04-02T03:04:38.850Z,84.19
2023-04-02T03:07:09.297Z,84.33
2023-04-02T03:09:45.459Z,84.52
2023-04-02T03:12:28.245Z,84.38
2023-04-02T03:15:02.974Z,84.22
2023-04-02T03:17:45.027Z,84.21
2023-04-02T03:20:18.438Z,84.33
2023-04-02T03:22:52.483Z,84.44
2023-04-02T03:25:30.461Z,84.08
2023-04-02T03:28:02.535Z,84.52
2023-04-02T03:30:34.807Z,84.25
2023-04-02T03:33:07.274Z,84.21
2023-04-02T03:35:40.505Z,84.33
2023-04-02T03:38:16.784Z,84.44
2023-04-02T03:40:54.875Z,84.28
2023-04-02T03:43:24.410Z,84.10
2023-04-02T03:45:55.595Z,84.09
2023-04-02T03:48:31.406Z,84.04
2023-04-02T03:51:05.419Z,84.20
2023-04-02T03:53:33.141Z,84.04
2023-04-02T03:56:02.535Z,83.91
2023-04-02T03:58:38.362Z,83.96
2023-04-02T04:01:14.889Z,84.16
2023-04-02T04:03:46.689Z,83.67
2023-04-02T04:06:16.370Z,83.80
2023-04-02T04:08:50.418Z,83.74
2023-04-02T04:11:22.257Z,83.16
2023-04-02T04:13:54.505Z,83.12
2023-04-02T04:16:26.722Z,83.49
2023-04-02T04:19:03.687Z,83.42
2023-04-02T04:21:31.445Z,83.25
2023-04-02T04:24:05.955Z,83.60
2023-04-02T04:26:41.325Z,83.57
2023-04-02T04:29:19.586Z,83.34
2023-04-02T04:31:49.506Z,83.38
2023-04-02T04:34:23.166Z,83.06
2023-04-02T04:36:56.624Z,83.30
2023-04-02T04:39:30.753Z,83.18
2023-04-02T04:42:02.321Z,82.03
2023-04-02T04:44:41.830Z,82.74
2023-04-02T04:47:14.303Z,82.61
2023-04-02T04:49:45.707Z,83.01
2023-04-02T04:52:19.032Z,82.51
2023-04-02T04:54:50.091Z,82.07
2023-04-02T04:57:29.487Z,82.33
2023-04-02T05:00:03.985Z,82.44
2023-04-02T05:02:36.623Z,81.17
2023-04-02T05:05:20.953Z,81.76
2023-04-02T05:07:59.673Z,80.58
2023-04-02T05:10:33.772Z,79.78
2023-04-02T05:13:07.487Z,80.79
2023-04-02T05:15:39.301Z,80.88
2023-04-02T05:18:14.166Z,81.25
2023-04-02T05:20:48.093Z,80.60
2023-04-02T05:23:20.006Z,79.81
2023-04-02T05:25:54.877Z,80.59
2023-04-02T05:28:26.790Z,80.58
2023-04-02T05:30:56.663Z,80.40
2023-04-02T05:33:27.311Z,80.08
2023-04-02T05:36:00.943Z,80.04
2023-04-02T05:38:29.956Z,80.23
2023-04-02T05:41:03.044Z,79.81
2023-04-02T05:43:33.248Z,80.44
2023-04-02T05:46:07.882Z,79.91
2023-04-02T05:48:38.983Z,80.14
2023-04-02T05:51:12.132Z,79.52
2023-04-02T05:53:45.575Z,78.85
2023-04-02T05:56:19.136Z,79.78
2023-04-02T05:58:51.017Z,79.40
2023-04-02T06:01:29.373Z,79.94
2023-04-02T06:04:02.953Z,79.55
2023-04-02T06:06:45.769Z,79.26
2023-04-02T06:09:18.106Z,79.60
2023-04-02T06:11:47.925Z,79.24
2023-04-02T06:14:16.882Z,79.57
2023-04-02T06:16:45.964Z,79.01
2023-04-02T06:19:21.425Z,78.38
2023-04-02T06:21:58.272Z,78.90
2023-04-02T06:24:33.056Z,78.19
2023-04-02T06:27:06.247Z,78.66
2023-04-02T06:29:39.792Z,78.21
2023-04-02T06:32:08.380Z,78.83
2023-04-02T06:34:37.961Z,78.58
2023-04-02T06:37:17.390Z,78.07
2023-04-02T06:39:47.049Z,78.36
2023-04-02T06:42:19.527Z,78.08
2023-04-02T06:44:51.313Z,78.15
2023-04-02T06:47:30.249Z,78.43
2023-04-02T06:50:04.389Z,78.22
2023-04-02T06:52:36.159Z,78.39
2023-04-02T06:55:18.025Z,76.86
2023-04-02T06:57:45.013Z,77.71
2023-04-02T07:00:25.069Z,77.98
2023-04-02T07:02:53.554Z,78.01
2023-04-02T07:05:43.771Z,78.04
2023-04-02T07:08:12.181Z,77.83
2023-04-02T07:10:39.135Z,77.82
2023-04-02T07:13:06.789Z,77.91
2023-04-02T07:15:36.405Z,78.12
2023-04-02T07:18:04.607Z,76.86
2023-04-02T07:20:34.533Z,77.60
2023-04-02T07:23:04.504Z,77.17
2023-04-02T07:25:34.364Z,76.63
2023-04-02T07:28:01.591Z,77.24
2023-04-02T07:30:28.772Z,77.44
2023-04-02T07:32:55.933Z,77.79
2023-04-02T07:35:22.892Z,77.09
2023-04-02T07:37:54.468Z,77.73
2023-04-02T07:40:24.272Z,77.39
2023-04-02T07:42:52.794Z,77.29
2023-04-02T07:45:20.445Z,77.31
2023-04-02T07:47:47.691Z,76.93
2023-04-02T07:50:19.127Z,76.78
2023-04-02T07:52:46.434Z,76.47
2023-04-02T07:55:16.219Z,75.82
2023-04-02T07:57:49.503Z,76.43
2023-04-02T08:00:18.893Z,76.86
2023-04-02T08:02:46.949Z,76.94
2023-04-02T08:05:14.670Z,76.79
2023-04-02T08:07:43.084Z,76.78
2023-04-02T08:10:12.622Z,77.08
2023-04-02T08:12:39.366Z,77.12
2023-04-02T08:15:07.543Z,77.14
2023-04-02T08:17:35.853Z,77.01
2023-04-02T08:20:04.427Z,77.26
2023-04-02T08:22:31.513Z,76.51
2023-04-02T08:24:58.403Z,76.46
2023-04-02T08:27:25.530Z,76.23
2023-04-02T08:29:52.481Z,76.22
2023-04-02T08:32:19.815Z,76.47
2023-04-02T08:34:48.185Z,75.42
2023-04-02T08:37:15.735Z,76.41
2023-04-02T08:39:43.679Z,75.87
2023-04-02T08:42:22.213Z,76.20
2023-04-02T08:45:21.108Z,75.93
2023-04-02T08:47:55.482Z,76.11
2023-04-02T08:50:30.284Z,75.68
2023-04-02T08:52:59.067Z,75.28
2023-04-02T08:55:36.383Z,75.89
2023-04-02T08:58:16.447Z,75.69
2023-04-02T09:00:45.857Z,75.79
2023-04-02T09:03:18.365Z,75.91
2023-04-02T09:05:48.520Z,74.80
2023-04-02T09:08:18.655Z,75.51
2023-04-02T09:10:53.624Z,75.49
2023-04-02T09:13:27.237Z,75.44
2023-04-02T09:16:02.258Z,75.47
2023-04-02T09:18:33.642Z,75.47
2023-04-02T09:21:17.460Z,74.83
2023-04-02T09:23:44.264Z,75.12
2023-04-02T09:26:20.577Z,75.23
2023-04-02T09:28:50.598Z,75.12
2023-04-02T09:31:21.396Z,75.14
2023-04-02T09:33:49.524Z,74.81
2023-04-02T09:36:32.988Z,75.03
2023-04-02T09:39:06.389Z,75.00
2023-04-02T09:41:36.700Z,74.84
2023-04-02T09:44:18.573Z,74.82
2023-04-02T09:46:55.232Z,74.79
2023-04-02T09:49:27.371Z,74.80
2023-04-02T09:52:20.614Z,74.69
2023-04-02T09:55:04.828Z,74.84
2023-04-02T09:57:33.601Z,74.11
2023-04-02T10:00:30.562Z,74.47
2023-04-02T10:03:05.783Z,74.46
2023-04-02T10:05:40.499Z,74.68
2023-04-02T10:08:19.265Z,74.58
2023-04-02T10:10:58.091Z,74.17
2023-04-02T10:13:28.819Z,73.59
2023-04-02T10:16:00.211Z,73.90
2023-04-02T10:18:38.706Z,73.03
2023-04-02T10:21:08.132Z,72.95
2023-04-02T10:23:36.524Z,73.50
2023-04-02T10:26:29.087Z,72.91
2023-04-02T10:29:34.359Z,72.53
2023-04-02T10:32:08.943Z,73.04
2023-04-02T10:34:43.720Z,73.53
2023-04-02T10:37:30.965Z,73.19
2023-04-02T10:40:11.050Z,73.23
2023-04-02T10:42:57.376Z,73.32
2023-04-02T10:45:38.934Z,73.34
2023-04-02T10:48:12.615Z,73.26
2023-04-02T10:50:48.786Z,72.99
2023-04-02T10:53:28.306Z,72.74
2023-04-02T10:56:03.632Z,72.51
2023-04-02T10:58:34.437Z,72.38
2023-04-02T11:01:07.999Z,72.30
2023-04-02T11:03:40.028Z,71.96
2023-04-02T11:06:16.760Z,71.84
2023-04-02T11:08:47.294Z,71.19
2023-04-02T11:11:18.941Z,71.36
2023-04-02T11:13:55.453Z,71.26
2023-04-02T11:16:22.591Z,71.00
2023-04-02T11:19:08.882Z,71.20
2023-04-02T11:21:55.129Z,71.02
2023-04-02T11:24:43.548Z,71.30
2023-04-02T11:27:23.699Z,71.13
2023-04-02T11:29:52.882Z,70.79
2023-04-02T11:32:42.647Z,70.82
2023-04-02T11:35:25.209Z,70.36
2023-04-02T11:37:54.709Z,70.29
2023-04-02T11:40:42.767Z,70.50
2023-04-02T11:43:49.513Z,70.40
2023-04-02T11:49:57.505Z,69.46
2023-04-02T11:52:27.709Z,69.46
2023-04-02T11:54:58.456Z,69.30
2023-04-02T11:57:46.095Z,69.72
2023-04-02T12:00:31.030Z,68.63
2023-04-02T12:03:19.000Z,68.52
2023-04-02T12:06:02.847Z,67.09
2023-04-02T12:08:50.890Z,67.28
2023-04-02T12:11:32.687Z,68.11
2023-04-02T12:14:00.772Z,67.80
2023-04-02T12:16:32.688Z,67.91
2023-04-02T12:19:00.620Z,67.45
2023-04-02T12:21:29.697Z,67.31
2023-04-02T12:23:58.769Z,67.22
2023-04-02T12:26:32.286Z,67.20
2023-04-02T12:29:15.938Z,67.28
2023-04-02T12:31:44.690Z,66.83
2023-04-02T12:34:16.364Z,66.98
2023-04-02T12:36:57.161Z,66.41
2023-04-02T12:39:26.696Z,66.77
2023-04-02T12:41:55.941Z,66.46
2023-04-02T12:44:24.524Z,66.38
2023-04-02T12:46:55.194Z,66.46
2023-04-02T12:49:34.892Z,66.40
2023-04-02T12:52:06.589Z,66.69
2023-04-02T12:54:45.653Z,66.38
2023-04-02T12:57:39.575Z,66.02
2023-04-02T13:01:06.044Z,66.36
2023-04-02T13:03:33.000Z,65.99
2023-04-02T13:05:59.897Z,65.11
2023-04-02T13:08:30.734Z,65.56
2023-04-02T13:11:03.074Z,64.92
2023-04-02T13:13:35.716Z,64.94
2023-04-02T13:16:22.755Z,64.79
2023-04-02T13:18:50.726Z,65.18
2023-04-02T13:21:28.834Z,64.73
2023-04-02T13:23:58.112Z,64.83
2023-04-02T13:26:27.202Z,64.52
2023-04-02T13:29:00.639Z,64.95
2023-04-02T13:31:28.102Z,65.06
2023-04-02T13:33:55.015Z,64.61
2023-04-02T13:36:22.059Z,64.51
2023-04-02T13:38:48.965Z,64.79
2023-04-02T13:41:22.481Z,64.84
2023-04-02T13:43:50.486Z,64.21
2023-04-02T13:46:21.570Z,64.36
2023-04-02T13:48:49.626Z,63.71
2023-04-02T13:51:18.351Z,64.13
2023-04-02T13:53:47.272Z,63.30
2023-04-02T13:56:14.273Z,63.65
2023-04-02T13:58:42.745Z,63.57
2023-04-02T14:01:09.954Z,63.81
2023-04-02T14:03:37.793Z,63.29
2023-04-02T14:06:13.403Z,59.82
2023-04-02T14:08:50.767Z,61.06
2023-04-02T14:11:35.863Z,60.95
2023-04-02T14:14:22.926Z,60.82
2023-04-02T14:17:02.828Z,61.25
2023-04-02T14:19:46.871Z,61.65
2023-04-02T14:22:26.082Z,61.88
2023-04-02T14:24:59.996Z,61.73
2023-04-02T14:27:39.065Z,61.91
2023-04-02T14:30:18.380Z,62.08
2023-04-02T14:32:54.842Z,61.23
2023-04-02T14:35:27.457Z,61.80
2023-04-02T14:38:06.216Z,62.14
2023-04-02T14:40:39.041Z,61.75
2023-04-02T14:43:11.684Z,61.82
2023-04-02T14:45:56.063Z,61.58
2023-04-02T14:48:32.962Z,61.53
2023-04-02T14:51:04.700Z,62.08
2023-04-02T14:53:37.596Z,61.17
2023-04-02T14:56:08.504Z,60.85
2023-04-02T14:58:41.600Z,60.95
2023-04-02T15:01:16.387Z,61.17
2023-04-02T15:03:50.129Z,61.58
2023-04-02T15:06:21.457Z,61.63
2023-04-02T15:09:02.071Z,62.10
2023-04-02T15:11:34.300Z,60.89
2023-04-02T15:14:07.030Z,60.86
2023-04-02T15:16:36.576Z,60.94
2023-04-02T15:19:10.128Z,61.15
2023-04-02T15:21:55.814Z,61.39
2023-04-02T15:24:31.429Z,60.54
2023-04-02T15:27:12.045Z,61.12
2023-04-02T15:29:54.543Z,61.46
2023-04-02T15:32:29.964Z,61.40
2023-04-02T15:35:05.904Z,61.47
2023-04-02T15:37:39.696Z,61.39
2023-04-02T15:40:44.450Z,61.28
2023-04-02T15:43:20.707Z,61.28
2023-04-02T15:45:53.571Z,61.60
2023-04-02T15:48:30.719Z,61.23
2023-04-02T15:51:20.390Z,61.26
2023-04-02T15:53:52.523Z,61.59
2023-04-02T15:56:26.714Z,61.37
2023-04-02T15:59:19.644Z,59.76
2023-04-02T16:01:54.175Z,60.70
2023-04-02T16:04:47.119Z,60.93
2023-04-02T16:07:30.955Z,61.27
2023-04-02T16:10:06.982Z,60.78
2023-04-02T16:12:35.341Z,60.89
2023-04-02T16:15:14.023Z,61.20
2023-04-02T16:17:43.930Z,61.33
2023-04-02T16:20:19.996Z,61.60
2023-04-02T16:23:00.422Z,61.43
2023-04-02T16:25:31.369Z,61.00
2023-04-02T16:28:08.305Z,61.32
2023-04-02T16:30:53.976Z,61.31
2023-04-02T16:33:33.753Z,61.45
2023-04-02T16:36:16.405Z,61.63
2023-04-02T16:38:57.137Z,61.70
2023-04-02T16:41:33.604Z,61.88
2023-04-02T16:44:12.743Z,61.68
2023-04-02T16:46:51.370Z,61.67
2023-04-02T16:49:26.805Z,61.61
2023-04-02T16:52:08.068Z,61.81
2023-04-02T16:54:47.060Z,62.07
2023-04-02T16:57:24.474Z,62.20
2023-04-02T17:00:01.201Z,61.70
2023-04-02T17:02:42.972Z,61.68
2023-04-02T17:05:20.373Z,62.00
2023-04-02T17:08:01.549Z,62.10
2023-04-02T17:10:32.475Z,62.12
2023-04-02T17:13:15.298Z,61.80
2023-04-02T17:15:47.155Z,62.32
2023-04-02T17:18:18.614Z,62.22
2023-04-02T17:20:46.001Z,62.47
2023-04-02T17:23:19.661Z,62.13
2023-04-02T17:25:50.824Z,62.12
2023-04-02T17:28:25.541Z,62.27
2023-04-02T17:30:56.345Z,62.51
2023-04-02T17:33:26.776Z,62.31
2023-04-02T17:36:05.275Z,62.53
2023-04-02T17:38:41.046Z,62.69
2023-04-02T17:41:16.232Z,62.83
2023-04-02T17:43:51.962Z,61.91
2023-04-02T17:46:27.236Z,62.41
2023-04-02T17:49:02.347Z,62.68
2023-04-02T17:51:39.508Z,62.72
2023-04-02T17:54:21.482Z,62.84
2023-04-02T17:57:01.657Z,62.88
2023-04-02T17:59:41.216Z,63.08
2023-04-02T18:02:30.074Z,63.08
2023-04-02T18:05:08.400Z,63.21
2023-04-02T18:07:44.992Z,63.43
2023-04-02T18:10:23.020Z,63.80
2023-04-02T18:12:58.157Z,63.54
2023-04-02T18:15:47.370Z,63.94
2023-04-02T18:18:31.055Z,63.92
2023-04-02T18:21:07.756Z,64.07
2023-04-02T18:23:44.759Z,64.33
2023-04-02T18:26:22.777Z,64.26
2023-04-02T18:28:59.974Z,64.71
2023-04-02T18:31:34.880Z,64.69
2023-04-02T18:34:17.801Z,64.60
2023-04-02T18:36:55.596Z,64.72
2023-04-02T18:39:28.960Z,65.04
2023-04-02T18:42:05.080Z,64.94
2023-04-02T18:44:48.832Z,65.40
2023-04-02T18:47:19.966Z,65.30
2023-04-02T18:49:51.950Z,65.38
2023-04-02T18:52:19.061Z,65.47
2023-04-02T18:54:50.707Z,65.75
2023-04-02T18:57:23.833Z,65.71
2023-04-02T18:59:57.496Z,65.99
2023-04-02T19:02:44.249Z,65.88
2023-04-02T19:05:22.390Z,66.04
2023-04-02T19:07:53.210Z,66.05
2023-04-02T19:10:27.393Z,66.44
2023-04-02T19:12:55.873Z,66.21
2023-04-02T19:15:30.488Z,66.29
2023-04-02T19:18:06.207Z,66.55
2023-04-02T19:20:41.713Z,66.70
2023-04-02T19:23:24.377Z,66.70
2023-04-02T19:26:01.000Z,66.81
2023-04-02T19:28:33.968Z,66.97
2023-04-02T19:31:19.352Z,67.09
2023-04-02T19:33:50.353Z,67.30
2023-04-02T19:36:49.373Z,67.30
2023-04-02T19:40:03.284Z,67.46
2023-04-02T19:42:34.141Z,67.60
2023-04-02T19:45:03.183Z,67.46
2023-04-02T19:47:29.929Z,67.66
2023-04-02T19:49:57.120Z,67.77
2023-04-02T19:52:23.989Z,67.83
2023-04-02T19:54:50.759Z,67.97
2023-04-02T19:57:17.786Z,68.07
2023-04-02T19:59:44.766Z,68.32
2023-04-02T20:02:13.090Z,68.40
2023-04-02T20:04:39.838Z,68.43
2023-04-02T20:07:06.621Z,68.34
2023-04-02T20:09:33.331Z,68.71
2023-04-02T20:12:00.148Z,68.59
2023-04-02T20:14:27.396Z,68.77
2023-04-02T20:16:54.243Z,68.83
2023-04-02T20:19:23.100Z,68.73
2023-04-02T20:21:51.053Z,68.75
2023-04-02T20:24:17.737Z,68.76
2023-04-02T20:26:44.400Z,68.73
2023-04-02T20:29:11.245Z,68.54
2023-04-02T20:31:43.407Z,68.81
2023-04-02T20:34:10.569Z,68.52
2023-04-02T20:36:41.072Z,68.52
2023-04-02T20:39:09.193Z,68.56
2023-04-02T20:41:36.122Z,68.77
2023-04-02T20:44:04.423Z,68.88
2023-04-02T20:46:32.001Z,68.76
2023-04-02T20:48:58.839Z,68.71
2023-04-02T20:51:26.078Z,68.56
2023-04-02T20:53:55.473Z,68.67
2023-04-02T20:56:26.612Z,68.56
2023-04-02T20:58:53.363Z,68.27
2023-04-02T21:01:23.208Z,68.31
2023-04-02T21:03:54.588Z,68.64
2023-04-02T21:06:24.092Z,68.47
2023-04-02T21:08:52.358Z,68.44
2023-04-02T21:11:22.416Z,68.54
2023-04-02T21:13:58.579Z,68.66
2023-04-02T21:16:31.388Z,68.61
2023-04-02T21:19:02.936Z,68.69
2023-04-02T21:21:39.712Z,68.63
2023-04-02T21:24:09.333Z,68.92
2023-04-02T21:26:43.437Z,68.70
2023-04-02T21:29:12.360Z,68.84
2023-04-02T21:31:41.090Z,68.86
2023-04-02T21:34:17.152Z,68.91
2023-04-02T21:36:46.244Z,68.78
2023-04-02T21:39:17.833Z,68.98
2023-04-02T21:41:50.159Z,68.95
2023-04-02T21:44:18.258Z,68.73
2023-04-02T21:46:45.833Z,68.99
2023-04-02T21:49:15.517Z,68.61
2023-04-02T21:51:46.919Z,68.35
2023-04-02T21:54:13.992Z,68.64
2023-04-02T21:56:46.488Z,68.60
2023-04-02T21:59:42.071Z,68.65
2023-04-02T22:02:08.787Z,68.71
2023-04-02T22:04:36.287Z,68.76
2023-04-02T22:07:03.352Z,68.16
2023-04-02T22:09:36.841Z,68.50
2023-04-02T22:12:08.233Z,68.43
2023-04-02T22:14:35.234Z,67.98
2023-04-02T22:17:03.862Z,67.93
2023-04-02T22:19:30.965Z,67.96
2023-04-02T22:21:57.821Z,68.10
2023-04-02T22:24:25.423Z,68.29
2023-04-02T22:26:52.969Z,68.19
2023-04-02T22:29:26.027Z,68.25
2023-04-02T22:31:54.155Z,67.93
2023-04-02T22:34:21.914Z,68.09
2023-04-02T22:36:48.620Z,67.89
2023-04-02T22:39:17.145Z,67.85
2023-04-02T22:41:47.367Z,68.03
2023-04-02T22:44:15.425Z,68.26
2023-04-02T22:46:43.765Z,68.19
2023-04-02T22:49:11.794Z,68.35
2023-04-02T22:51:38.626Z,68.60
2023-04-02T22:54:05.765Z,68.29
2023-04-02T22:56:33.500Z,68.30
2023-04-02T22:59:00.995Z,68.15
2023-04-02T23:01:31.044Z,67.62
2023-04-02T23:03:59.553Z,67.96
2023-04-02T23:06:26.398Z,68.29
2023-04-02T23:08:53.454Z,68.13
2023-04-02T23:11:22.365Z,67.85
2023-04-02T23:13:53.709Z,68.24
2023-04-02T23:16:23.107Z,68.28
2023-04-02T23:18:50.613Z,67.95
2023-04-02T23:21:23.354Z,67.97
2023-04-02T23:23:50.601Z,67.99
2023-04-02T23:26:21.795Z,68.15
2023-04-02T23:28:49.400Z,68.18
2023-04-02T23:31:20.194Z,68.31
2023-04-02T23:33:47.491Z,68.45
2023-04-02T23:36:18.675Z,68.39
2023-04-02T23:38:46.822Z,68.30
2023-04-02T23:41:15.403Z,68.32
2023-04-02T23:43:42.390Z,68.41
2023-04-02T23:46:09.582Z,68.61
2023-04-02T23:48:36.317Z,68.42
2023-04-02T23:51:03.859Z,68.63
2023-04-02T23:53:32.001Z,68.33
2023-04-02T23:56:01.026Z,68.35
2023-04-02T23:58:28.509Z,68.73
